createdAt,value
2018-03-20T23:00:06.140Z,-4.8
2018-03-20T23:01:13.334Z,-4.9
2018-03-20T23:02:19.972Z,-4.8
2018-03-20T23:03:26.617Z,-4.9
2018-03-20T23:04:33.532Z,-4.9
2018-03-20T23:05:55.421Z,-4.9
2018-03-20T23:07:02.615Z,-4.9
2018-03-20T23:08:09.834Z,-4.9
2018-03-20T23:09:17.029Z,-5
2018-03-20T23:10:23.943Z,-5
2018-03-20T23:11:31.136Z,-5
2018-03-20T23:12:38.057Z,-5.1
2018-03-20T23:13:45.252Z,-5.1
2018-03-20T23:14:52.452Z,-5.2
2018-03-20T23:15:58.833Z,-5.2
2018-03-20T23:17:06.026Z,-5.2
2018-03-20T23:18:13.424Z,-5.3
2018-03-20T23:19:20.337Z,-5.3
2018-03-20T23:20:26.704Z,-5.3
2018-03-20T23:21:33.620Z,-5.4
2018-03-20T23:22:40.264Z,-5.4
2018-03-20T23:23:47.450Z,-5.4
2018-03-20T23:24:54.639Z,-5.4
2018-03-20T23:26:01.282Z,-5.5
2018-03-20T23:27:08.477Z,-5.5
2018-03-20T23:28:15.666Z,-5.5
2018-03-20T23:29:22.862Z,-5.5
2018-03-20T23:30:29.785Z,-5.5
2018-03-20T23:31:36.705Z,-5.5
2018-03-20T23:32:43.895Z,-5.6
2018-03-20T23:33:50.813Z,-5.6
2018-03-20T23:34:57.454Z,-5.6
2018-03-20T23:36:04.647Z,-5.6
2018-03-20T23:37:11.839Z,-5.7
2018-03-20T23:38:18.754Z,-5.6
2018-03-20T23:39:25.952Z,-5.7
2018-03-20T23:40:32.601Z,-5.7
2018-03-20T23:41:39.248Z,-5.7
2018-03-20T23:42:46.443Z,-5.7
2018-03-20T23:43:53.641Z,-5.8
2018-03-20T23:45:00.837Z,-5.8
2018-03-20T23:46:08.030Z,-5.8
2018-03-20T23:47:15.226Z,-5.8
2018-03-20T23:48:22.423Z,-5.8
2018-03-20T23:49:29.616Z,-5.9
2018-03-20T23:50:36.806Z,-5.9
2018-03-20T23:51:43.724Z,-5.9
2018-03-20T23:52:50.916Z,-5.9
2018-03-20T23:53:58.110Z,-5.9
2018-03-20T23:55:05.027Z,-6
2018-03-20T23:56:12.219Z,-6
2018-03-20T23:57:19.416Z,-6
2018-03-20T23:58:26.326Z,-6
2018-03-20T23:59:32.979Z,-6
